Time;durP1;ratioP1;P1;durP2;ratioP2;P2;SDS_P1;SDS_P2;PMS_P1;PMS_P2;Temp;Humidity;BMP_temperature;BMP_pressure;BME280_temperature;BME280_humidity;BME280_pressure;Samples;Min_cycle;Max_cycle;Signal;HPM_P1;HPM_P2
2022/03/14 00:01:19;;;;;;;3.33;2.50;;;;;;;11.76;60.07;101580.38;7389094;19;20021;-61
2022/03/14 00:03:53;;;;;;;2.30;2.00;;;;;;;11.74;60.08;101582.19;7389454;19;20014;-61
2022/03/14 00:06:22;;;;;;;3.28;2.20;;;;;;;11.74;60.22;101581.34;7389192;19;20062;-61
2022/03/14 00:08:55;;;;;;;4.97;2.53;;;;;;;11.72;60.13;101591.03;7389428;19;20018;-64
2022/03/14 00:11:26;;;;;;;2.40;2.13;;;;;;;11.78;59.91;101594.28;7388124;19;20014;-61
2022/03/14 00:14:01;;;;;;;2.20;1.90;;;;;;;11.76;59.88;101587.38;7389930;19;20022;-61
2022/03/14 00:16:36;;;;;;;2.25;1.80;;;;;;;11.81;59.98;101595.13;7390206;19;20018;-62
2022/03/14 00:19:08;;;;;;;2.83;2.13;;;;;;;11.67;60.32;101590.34;7389763;19;20018;-62
2022/03/14 00:21:39;;;;;;;2.40;1.93;;;;;;;11.63;60.42;101600.09;7391099;19;20021;-63
2022/03/14 00:24:10;;;;;;;2.28;1.85;;;;;;;11.55;60.91;101596.91;7390957;19;20028;-62
2022/03/14 00:26:39;;;;;;;2.20;1.77;;;;;;;11.54;61.02;101595.19;7390988;19;20010;-62
2022/03/14 00:29:09;;;;;;;3.15;1.95;;;;;;;11.53;61.10;101606.59;7389164;19;20018;-61
2022/03/14 00:31:40;;;;;;;2.05;1.70;;;;;;;11.58;60.83;101600.28;7388030;19;20017;-63
2022/03/14 00:34:13;;;;;;;1.90;1.70;;;;;;;11.56;60.95;101609.09;7389374;19;20024;-62
2022/03/14 00:36:43;;;;;;;2.00;1.58;;;;;;;11.66;60.49;101607.84;7388452;19;20026;-62
2022/03/14 00:39:12;;;;;;;2.25;1.73;;;;;;;11.75;60.52;101601.44;7388508;19;20021;-61
2022/03/14 00:41:41;;;;;;;2.10;1.70;;;;;;;11.68;60.73;101613.94;7388441;19;20492;-62
2022/03/14 00:44:11;;;;;;;2.30;1.85;;;;;;;11.59;61.25;101614.25;7388832;19;20063;-62
2022/03/14 00:46:41;;;;;;;1.70;1.60;;;;;;;11.52;61.22;101615.38;7387807;19;20023;-62
2022/03/14 00:49:13;;;;;;;2.30;1.80;;;;;;;11.42;61.73;101617.50;7387606;19;20060;-62
2022/03/14 00:51:42;;;;;;;2.17;1.70;;;;;;;11.38;61.93;101615.88;7387597;19;20795;-62
2022/03/14 00:54:12;;;;;;;3.70;2.00;;;;;;;11.53;61.74;101624.97;7387832;19;20235;-63
2022/03/14 00:56:41;;;;;;;2.80;1.98;;;;;;;11.55;61.33;101625.78;7390558;19;20456;-60
2022/03/14 00:59:10;;;;;;;2.55;2.10;;;;;;;11.50;61.25;101630.34;7391960;19;20011;-63
2022/03/14 01:01:38;;;;;;;2.63;1.92;;;;;;;11.55;61.48;101633.66;7395215;19;20065;-63
2022/03/14 01:04:07;;;;;;;2.40;2.05;;;;;;;11.48;61.75;101632.16;7395108;19;20479;-62
2022/03/14 01:06:39;;;;;;;2.40;1.90;;;;;;;11.40;61.80;101625.41;7394098;19;20018;-61
2022/03/14 01:09:11;;;;;;;2.42;2.00;;;;;;;11.40;62.22;101638.53;7394417;19;20050;-62
2022/03/14 01:11:40;;;;;;;2.78;2.15;;;;;;;11.32;62.80;101637.06;7394269;19;20014;-62
2022/03/14 01:14:09;;;;;;;3.28;2.25;;;;;;;11.35;62.75;101648.31;7398594;19;20119;-63
2022/03/14 01:16:37;;;;;;;2.70;2.17;;;;;;;11.24;63.28;101646.06;7393749;19;20014;-62
2022/03/14 01:19:11;;;;;;;2.78;2.28;;;;;;;11.28;63.47;101652.06;7394314;19;20463;-61
2022/03/14 01:21:44;;;;;;;2.83;2.22;;;;;;;11.31;63.40;101656.34;7394189;19;20359;-61
2022/03/14 01:24:13;;;;;;;3.35;2.33;;;;;;;11.22;63.54;101647.88;7395313;19;20015;-58
2022/03/14 01:26:41;;;;;;;2.90;2.22;;;;;;;11.19;64.03;101654.97;7394367;19;20030;-62
2022/03/14 01:29:10;;;;;;;2.75;2.20;;;;;;;11.15;64.39;101650.78;7393940;19;20014;-63
2022/03/14 01:31:40;;;;;;;2.83;2.38;;;;;;;11.05;64.39;101660.72;7393843;19;20058;-62
2022/03/14 01:34:09;;;;;;;3.70;2.65;;;;;;;11.18;64.29;101658.53;7394814;19;20018;-62
2022/03/14 01:36:38;;;;;;;3.75;2.28;;;;;;;11.19;63.85;101658.47;7394158;19;20483;-62
2022/03/14 01:39:09;;;;;;;2.33;1.90;;;;;;;11.15;64.02;101661.28;7393738;19;20022;-61
2022/03/14 01:41:38;;;;;;;2.97;2.15;;;;;;;11.29;63.90;101660.78;7394611;19;20363;-63
2022/03/14 01:44:07;;;;;;;2.95;2.33;;;;;;;11.31;63.52;101666.84;7394886;19;20007;-63
2022/03/14 01:46:39;;;;;;;3.00;2.65;;;;;;;11.20;64.15;101661.97;7394411;19;20075;-61
2022/03/14 01:49:07;;;;;;;3.25;2.58;;;;;;;11.28;63.74;101672.22;7393319;19;20064;-62
2022/03/14 01:51:36;;;;;;;2.63;2.20;;;;;;;11.27;63.71;101663.47;7393316;19;20371;-61
2022/03/14 01:54:08;;;;;;;3.70;2.65;;;;;;;11.29;63.79;101668.66;7394202;19;20392;-61
2022/03/14 01:56:40;;;;;;;3.97;2.70;;;;;;;11.33;63.95;101663.25;7394075;19;20112;-61
2022/03/14 01:59:09;;;;;;;3.58;2.80;;;;;;;11.33;63.81;101668.50;7393537;19;20432;-63
2022/03/14 02:01:38;;;;;;;3.47;2.80;;;;;;;11.17;64.26;101657.66;7393431;19;20017;-62
2022/03/14 02:04:08;;;;;;;3.63;2.70;;;;;;;11.33;64.08;101662.41;7394084;19;20021;-62
2022/03/14 02:06:39;;;;;;;3.67;2.92;;;;;;;11.35;64.04;101671.09;7393490;19;20494;-60
2022/03/14 02:09:12;;;;;;;3.47;2.90;;;;;;;11.40;63.80;101666.53;7393358;19;20025;-63
2022/03/14 02:11:52;;;;;;;4.47;2.83;;;;;;;11.37;64.26;101671.88;7394383;19;20034;-63
2022/03/14 02:14:21;;;;;;;3.38;2.90;;;;;;;11.26;64.38;101680.09;7396930;19;20018;-63
2022/03/14 02:16:50;;;;;;;3.70;3.00;;;;;;;11.20;64.76;101680.31;7392271;19;20010;-62
2022/03/14 02:19:20;;;;;;;4.28;2.83;;;;;;;11.25;64.61;101691.53;7392634;19;20025;-61
2022/03/14 02:21:52;;;;;;;3.38;2.83;;;;;;;11.23;64.87;101690.69;7393293;19;20011;-63
2022/03/14 02:24:20;;;;;;;3.53;2.67;;;;;;;11.10;65.05;101684.16;7394413;19;20022;-63
2022/03/14 02:26:49;;;;;;;4.47;3.20;;;;;;;11.08;65.61;101685.06;7393286;19;20022;-63
2022/03/14 02:29:18;;;;;;;3.97;3.03;;;;;;;11.14;65.34;101678.75;7392803;19;20087;-62
2022/03/14 02:31:47;;;;;;;4.28;3.20;;;;;;;11.06;65.34;101686.88;7392178;19;20464;-63
2022/03/14 02:34:16;;;;;;;3.70;3.15;;;;;;;11.11;65.57;101685.88;7393080;19;20436;-62
2022/03/14 02:36:45;;;;;;;4.00;3.17;;;;;;;11.10;65.44;101694.66;7396044;19;20023;-61
2022/03/14 02:39:17;;;;;;;3.75;2.92;;;;;;;11.04;65.80;101686.06;7397359;19;20017;-63
2022/03/14 02:41:46;;;;;;;3.30;2.60;;;;;;;10.99;65.93;101687.13;7390701;19;20096;-62
2022/03/14 02:44:15;;;;;;;4.00;3.40;;;;;;;11.02;65.96;101682.63;7392470;19;20022;-62
2022/03/14 02:46:44;;;;;;;4.32;3.38;;;;;;;10.88;66.82;101685.69;7391574;19;20089;-62
2022/03/14 02:49:14;;;;;;;4.22;3.50;;;;;;;10.87;67.05;101685.75;7391554;19;20027;-63
2022/03/14 02:51:43;;;;;;;5.10;3.65;;;;;;;10.80;67.11;101694.72;7392553;19;20017;-61
2022/03/14 02:54:13;;;;;;;4.13;3.20;;;;;;;10.82;66.92;101700.78;7392766;19;20431;-62
2022/03/14 02:56:44;;;;;;;4.07;3.40;;;;;;;10.77;67.24;101706.16;7391713;19;20015;-62
2022/03/14 02:59:14;;;;;;;3.90;3.28;;;;;;;10.73;67.94;101702.78;7391529;19;20015;-61
2022/03/14 03:01:43;;;;;;;4.68;3.50;;;;;;;10.84;68.10;101704.19;7391653;19;20030;-61
2022/03/14 03:04:12;;;;;;;3.90;3.13;;;;;;;10.83;67.84;101712.97;7391046;19;20014;-60
2022/03/14 03:06:41;;;;;;;4.40;3.45;;;;;;;10.81;68.25;101712.16;7391295;19;20014;-62
2022/03/14 03:09:10;;;;;;;5.95;4.13;;;;;;;10.78;69.72;101720.13;7390869;19;20019;-58
2022/03/14 03:11:40;;;;;;;5.47;3.78;;;;;;;10.52;71.62;101724.38;7391386;19;20018;-59
2022/03/14 03:14:12;;;;;;;4.15;3.47;;;;;;;10.41;72.96;101731.69;7392435;19;20018;-61
2022/03/14 03:16:42;;;;;;;5.78;4.47;;;;;;;10.32;73.57;101728.41;7390539;19;20070;-59
2022/03/14 03:19:12;;;;;;;5.00;4.10;;;;;;;10.17;74.61;101726.22;7389963;19;20498;-62
2022/03/14 03:21:41;;;;;;;4.68;4.00;;;;;;;10.21;75.04;101743.56;7390130;19;20034;-62
2022/03/14 03:24:12;;;;;;;5.45;4.10;;;;;;;10.18;74.51;101741.03;7390080;19;20075;-62
2022/03/14 03:26:41;;;;;;;5.32;4.45;;;;;;;10.27;74.34;101746.00;7390576;19;20022;-61
2022/03/14 03:29:13;;;;;;;4.30;3.60;;;;;;;10.30;74.50;101740.69;7389810;19;20025;-64
2022/03/14 03:31:42;;;;;;;7.28;4.53;;;;;;;10.28;74.59;101734.63;7391154;19;20018;-60
2022/03/14 03:34:14;;;;;;;5.78;4.57;;;;;;;10.25;74.69;101750.44;7389405;19;20022;-62
2022/03/14 03:36:43;;;;;;;5.40;4.03;;;;;;;10.28;74.80;101749.50;7389221;19;20021;-61
2022/03/14 03:39:12;;;;;;;5.45;4.32;;;;;;;10.24;75.55;101746.09;7387077;19;20628;-60
2022/03/14 03:41:41;;;;;;;5.20;4.15;;;;;;;10.18;75.32;101754.97;7390283;19;20491;-60
2022/03/14 03:44:13;;;;;;;6.88;4.00;;;;;;;10.28;75.16;101763.44;7390186;19;20451;-63
2022/03/14 03:46:41;;;;;;;4.95;4.10;;;;;;;10.32;74.68;101764.22;7389486;19;20019;-63
2022/03/14 03:49:10;;;;;;;4.65;4.00;;;;;;;10.46;73.96;101782.19;7388835;19;20010;-63
2022/03/14 03:51:39;;;;;;;5.10;4.35;;;;;;;10.45;73.91;101783.97;7390535;19;20027;-61
2022/03/14 03:54:08;;;;;;;5.13;4.30;;;;;;;10.39;74.44;101786.78;7388412;19;20011;-61
2022/03/14 03:56:38;;;;;;;6.10;4.80;;;;;;;10.50;73.58;101789.06;7389951;19;20029;-62
2022/03/14 03:59:07;;;;;;;6.32;4.43;;;;;;;10.32;74.44;101801.75;7389589;19;20117;-60
2022/03/14 04:01:39;;;;;;;6.15;4.68;;;;;;;10.14;74.79;101804.88;7389300;19;20033;-63
2022/03/14 04:04:09;;;;;;;5.68;4.07;;;;;;;10.18;75.18;101803.91;7388636;19;20021;-62
2022/03/14 04:06:39;;;;;;;6.00;4.57;;;;;;;10.24;75.12;101805.50;7389091;19;20053;-61
2022/03/14 04:09:09;;;;;;;4.88;4.03;;;;;;;10.27;75.54;101810.63;7389495;19;20463;-62
2022/03/14 04:11:39;;;;;;;6.32;4.47;;;;;;;10.28;75.13;101810.59;7389713;19;20085;-62
2022/03/14 04:14:09;;;;;;;4.85;4.13;;;;;;;10.26;75.72;101822.00;7391125;19;20040;-62
2022/03/14 04:16:41;;;;;;;5.82;4.38;;;;;;;10.36;74.76;101823.53;7388930;19;20021;-63
2022/03/14 04:19:10;;;;;;;5.83;4.77;;;;;;;10.36;74.43;101818.31;7388449;19;20023;-63
2022/03/14 04:21:39;;;;;;;5.07;4.13;;;;;;;10.36;74.29;101821.78;7388741;19;20022;-61
2022/03/14 04:24:08;;;;;;;6.13;4.32;;;;;;;10.25;75.17;101830.78;7389061;19;20015;-63
2022/03/14 04:26:38;;;;;;;5.50;4.53;;;;;;;10.37;75.07;101833.09;7387973;19;20018;-62
2022/03/14 04:29:07;;;;;;;5.22;4.38;;;;;;;10.25;75.33;101836.88;7388901;19;20021;-61
2022/03/14 04:31:36;;;;;;;7.75;4.63;;;;;;;10.26;75.16;101846.47;7386878;19;20518;-62
2022/03/14 04:34:07;;;;;;;6.05;4.72;;;;;;;10.10;75.71;101848.63;7386667;19;20111;-63
2022/03/14 04:36:36;;;;;;;5.15;4.43;;;;;;;10.16;75.68;101845.00;7387993;19;20018;-61
2022/03/14 04:39:05;;;;;;;5.40;4.53;;;;;;;10.11;76.00;101849.47;7388124;19;20011;-62
2022/03/14 04:41:37;;;;;;;5.03;4.15;;;;;;;10.11;76.04;101854.72;7388667;19;20114;-63
2022/03/14 04:44:07;;;;;;;5.77;4.63;;;;;;;10.07;76.68;101855.69;7388466;19;20014;-61
2022/03/14 04:46:36;;;;;;;5.75;4.93;;;;;;;10.09;77.23;101861.78;7388247;19;20740;-60
2022/03/14 04:49:08;;;;;;;7.50;5.10;;;;;;;10.07;77.35;101864.41;7387621;19;20010;-63
2022/03/14 04:51:38;;;;;;;6.35;4.95;;;;;;;10.06;77.32;101857.47;7386389;19;20078;-63
2022/03/14 04:54:06;;;;;;;5.95;4.85;;;;;;;10.00;77.67;101866.31;7386622;19;20407;-60
2022/03/14 04:56:36;;;;;;;5.82;4.90;;;;;;;9.95;78.03;101873.44;7388099;19;20014;-63
2022/03/14 04:59:05;;;;;;;6.70;5.07;;;;;;;10.11;76.64;101873.91;7386878;19;20026;-64
2022/03/14 05:01:34;;;;;;;7.20;5.32;;;;;;;10.19;76.18;101887.66;7388298;19;20018;-64
2022/03/14 05:04:03;;;;;;;6.00;5.10;;;;;;;10.14;76.17;101886.06;7388622;19;20022;-61
2022/03/14 05:06:35;;;;;;;6.03;5.25;;;;;;;10.18;75.62;101896.41;7388716;19;20019;-63
2022/03/14 05:09:05;;;;;;;7.22;5.57;;;;;;;10.00;77.35;101899.50;7387748;19;20098;-63
2022/03/14 05:11:35;;;;;;;8.52;6.70;;;;;;;9.74;79.59;101908.81;7388884;19;20022;-61
2022/03/14 05:14:04;;;;;;;11.00;8.95;;;;;;;9.46;82.57;101921.69;7390137;19;20053;-63
2022/03/14 05:16:32;;;;;;;11.40;9.32;;;;;;;9.20;86.66;101919.63;7387288;19;20021;-62
2022/03/14 05:19:01;;;;;;;12.70;10.52;;;;;;;9.02;87.95;101928.72;7387660;19;20078;-63
2022/03/14 05:21:33;;;;;;;12.98;10.55;;;;;;;8.79;90.54;101928.25;7387825;19;20014;-64
2022/03/14 05:24:05;;;;;;;14.48;11.73;;;;;;;8.78;92.11;101931.78;7388402;19;20025;-63
2022/03/14 05:26:37;;;;;;;13.60;11.55;;;;;;;8.78;93.22;101929.16;7390688;19;20010;-63
2022/03/14 05:29:06;;;;;;;14.30;11.90;;;;;;;8.76;93.74;101937.91;7391211;19;20547;-62
2022/03/14 05:31:35;;;;;;;14.95;11.48;;;;;;;8.55;93.84;101940.00;7388309;19;20339;-62
2022/03/14 05:34:04;;;;;;;15.75;12.32;;;;;;;8.60;94.47;101953.00;7386934;19;20383;-63
2022/03/14 05:36:33;;;;;;;16.63;13.07;;;;;;;8.71;94.82;101956.31;7387712;19;20010;-61
2022/03/14 05:39:04;;;;;;;15.90;13.45;;;;;;;8.80;94.67;101961.34;7387659;19;20018;-64
2022/03/14 05:41:33;;;;;;;15.82;13.05;;;;;;;8.71;93.67;101958.03;7387474;19;20025;-60
2022/03/14 05:44:02;;;;;;;16.58;13.57;;;;;;;8.74;94.12;101963.19;7392246;19;20022;-62
2022/03/14 05:46:36;;;;;;;16.85;13.80;;;;;;;8.65;92.94;101967.72;7394537;19;20067;-62
2022/03/14 05:49:05;;;;;;;20.05;13.93;;;;;;;8.70;93.12;101971.97;7394616;19;20347;-63
2022/03/14 05:51:36;;;;;;;21.05;14.88;;;;;;;8.68;92.37;101968.53;7394408;19;20021;-63
2022/03/14 05:54:08;;;;;;;19.10;14.85;;;;;;;8.82;92.65;101979.59;7417455;19;20007;-65
2022/03/14 05:56:37;;;;;;;20.87;15.80;;;;;;;8.68;91.70;101971.16;7400663;19;20018;-61
2022/03/14 05:59:06;;;;;;;19.80;15.63;;;;;;;8.76;92.21;101970.13;7394381;19;20234;-63
2022/03/14 06:01:38;;;;;;;20.23;15.93;;;;;;;8.66;91.30;101973.78;7394020;19;20082;-61
2022/03/14 06:04:07;;;;;;;20.60;15.97;;;;;;;8.64;91.00;101975.59;7393910;19;20368;-62
2022/03/14 06:06:37;;;;;;;19.67;15.65;;;;;;;8.67;91.01;101988.59;7393721;19;20126;-62
2022/03/14 06:09:08;;;;;;;20.38;15.38;;;;;;;8.72;90.58;101991.13;7394348;19;20010;-63
2022/03/14 06:11:38;;;;;;;18.52;15.07;;;;;;;8.63;89.70;101987.78;7394040;19;20025;-62
2022/03/14 06:14:07;;;;;;;20.77;15.63;;;;;;;8.75;89.89;101996.28;7395447;19;20077;-63
2022/03/14 06:16:37;;;;;;;21.00;15.07;;;;;;;8.73;89.60;102008.53;7392766;19;20014;-63
2022/03/14 06:19:06;;;;;;;19.65;14.10;;;;;;;8.64;88.56;102010.41;7393111;19;20022;-63
2022/03/14 06:21:38;;;;;;;18.65;14.77;;;;;;;8.68;88.80;102019.03;7394513;19;20492;-63
2022/03/14 06:24:11;;;;;;;17.70;14.30;;;;;;;8.69;88.87;102025.16;7401213;19;20023;-63
2022/03/14 06:26:40;;;;;;;18.75;14.02;;;;;;;8.60;88.42;102029.63;7395877;19;20022;-63
2022/03/14 06:29:09;;;;;;;18.13;13.70;;;;;;;8.66;88.71;102033.91;7394335;19;20038;-63
2022/03/14 06:31:38;;;;;;;18.77;14.10;;;;;;;8.64;88.69;102046.97;7396839;19;20332;-63
2022/03/14 06:34:07;;;;;;;19.70;14.77;;;;;;;8.65;89.40;102046.09;7394393;19;20014;-63
2022/03/14 06:36:36;;;;;;;20.80;14.05;;;;;;;8.67;89.55;102043.47;7394283;19;20022;-63
2022/03/14 06:39:10;;;;;;;19.35;14.15;;;;;;;8.62;88.43;102061.81;7393017;19;20019;-63
2022/03/14 06:41:41;;;;;;;20.88;14.80;;;;;;;8.58;88.88;102065.38;7390565;19;20019;-63
2022/03/14 06:44:10;;;;;;;19.70;14.23;;;;;;;8.63;88.95;102079.22;7392585;19;20010;-63
2022/03/14 06:46:39;;;;;;;19.77;14.57;;;;;;;8.65;88.57;102068.75;7392997;19;20014;-63
2022/03/14 06:49:07;;;;;;;20.27;14.52;;;;;;;8.73;88.74;102079.94;7392316;19;20361;-62
2022/03/14 06:51:37;;;;;;;20.52;14.90;;;;;;;8.79;88.70;102079.81;7392692;19;20015;-63
2022/03/14 06:54:05;;;;;;;20.38;15.30;;;;;;;8.83;88.48;102085.88;7391001;19;20043;-63
2022/03/14 06:56:37;;;;;;;21.38;15.88;;;;;;;8.72;88.35;102090.41;7392764;19;20471;-61
2022/03/14 06:59:06;;;;;;;19.23;13.95;;;;;;;8.78;88.25;102090.31;7392782;19;20022;-63
2022/03/14 07:01:35;;;;;;;19.90;15.45;;;;;;;8.68;88.16;102092.19;7393818;19;20014;-63
2022/03/14 07:04:05;;;;;;;22.30;15.88;;;;;;;8.80;87.89;102091.16;7394114;19;20476;-63
2022/03/14 07:06:34;;;;;;;22.55;15.57;;;;;;;8.79;87.22;102092.03;7394536;19;20017;-62
2022/03/14 07:09:04;;;;;;;24.25;16.38;;;;;;;8.79;87.92;102092.91;7392744;19;20044;-63
2022/03/14 07:11:33;;;;;;;20.80;15.75;;;;;;;8.80;87.52;102096.41;7392661;19;20022;-63
2022/03/14 07:14:06;;;;;;;24.10;15.98;;;;;;;8.86;87.02;102106.75;7395074;19;20388;-63
2022/03/14 07:16:35;;;;;;;22.52;16.98;;;;;;;8.91;86.94;102114.50;7392038;19;20078;-63
2022/03/14 07:19:05;;;;;;;21.40;15.80;;;;;;;8.87;86.76;102104.97;7391612;19;20516;-62
2022/03/14 07:21:34;;;;;;;21.88;16.33;;;;;;;8.83;86.90;102112.03;7391832;19;20494;-61
2022/03/14 07:24:03;;;;;;;21.85;15.90;;;;;;;8.98;87.23;102117.00;7392214;19;20022;-62
2022/03/14 07:26:31;;;;;;;23.33;16.35;;;;;;;9.04;86.16;102108.19;7391681;19;20029;-63
2022/03/14 07:29:01;;;;;;;22.92;16.30;;;;;;;9.02;86.22;102111.72;7391304;19;20111;-62
2022/03/14 07:31:32;;;;;;;21.30;16.33;;;;;;;9.03;85.69;102116.91;7391620;19;20015;-61
2022/03/14 07:34:01;;;;;;;20.95;15.90;;;;;;;9.14;85.70;102112.38;7391482;19;20483;-61
2022/03/14 07:36:30;;;;;;;22.85;16.30;;;;;;;9.12;85.69;102113.28;7390933;19;20017;-61
2022/03/14 07:38:59;;;;;;;22.42;16.75;;;;;;;9.11;86.03;102116.78;7391349;19;20015;-62
2022/03/14 07:41:27;;;;;;;25.50;18.58;;;;;;;9.12;85.53;102115.91;7390442;19;20010;-62
2022/03/14 07:44:00;;;;;;;24.02;17.05;;;;;;;9.10;84.76;102122.91;7391097;19;20014;-63
2022/03/14 07:46:32;;;;;;;23.80;17.45;;;;;;;9.06;85.68;102126.47;7390673;19;20102;-63
2022/03/14 07:49:01;;;;;;;25.17;16.88;;;;;;;9.11;85.73;102133.34;7391827;19;20014;-63
2022/03/14 07:51:32;;;;;;;23.85;17.83;;;;;;;9.22;85.71;102135.75;7391804;19;20018;-62
2022/03/14 07:54:01;;;;;;;27.23;19.15;;;;;;;9.17;85.62;102143.69;7414851;19;20006;-61
2022/03/14 07:56:30;;;;;;;23.92;18.35;;;;;;;9.22;85.71;102150.59;7400839;19;20021;-63
2022/03/14 07:58:59;;;;;;;27.55;18.88;;;;;;;9.25;85.15;102161.84;7392918;19;20427;-62
2022/03/14 08:01:27;;;;;;;26.50;19.52;;;;;;;9.17;85.08;102162.00;7390713;19;20399;-63
2022/03/14 08:03:59;;;;;;;25.73;19.38;;;;;;;9.20;84.96;102176.78;7392690;19;20010;-64
2022/03/14 08:06:28;;;;;;;26.85;19.88;;;;;;;9.25;85.51;102174.09;7388480;19;20010;-61
2022/03/14 08:09:00;;;;;;;30.15;20.98;;;;;;;9.25;85.30;102180.16;7391033;19;20022;-63
2022/03/14 08:11:29;;;;;;;27.13;20.37;;;;;;;9.22;84.91;102174.13;7390746;19;20022;-62
2022/03/14 08:14:01;;;;;;;29.15;20.85;;;;;;;9.27;84.83;102175.78;7392755;19;20044;-62
2022/03/14 08:16:30;;;;;;;38.75;23.95;;;;;;;9.17;85.69;102175.06;7390712;19;20029;-63
2022/03/14 08:19:03;;;;;;;29.50;21.92;;;;;;;9.20;85.13;102181.13;7390971;19;20014;-64
2022/03/14 08:21:33;;;;;;;;;;;;;;;9.28;84.87;102194.94;7391927;19;20082;-62
2022/03/14 08:24:02;;;;;;;30.02;21.88;;;;;;;9.11;85.12;102195.22;7390018;19;19931;-63
2022/03/14 08:26:32;;;;;;;29.25;22.30;;;;;;;9.12;85.64;102199.56;7388828;19;20026;-63
2022/03/14 08:29:03;;;;;;;31.10;22.48;;;;;;;9.18;85.18;102195.13;7389732;19;20019;-62
2022/03/14 08:31:32;;;;;;;30.08;22.60;;;;;;;9.28;85.34;102202.81;7390333;19;20014;-63
2022/03/14 08:34:04;;;;;;;30.30;22.77;;;;;;;9.34;84.24;102208.81;7388227;19;20007;-63
2022/03/14 08:36:35;;;;;;;32.57;23.77;;;;;;;9.34;84.18;102216.66;7389291;19;20370;-62
2022/03/14 08:39:04;;;;;;;35.00;23.73;;;;;;;9.37;84.02;102222.72;7389792;19;20106;-62
2022/03/14 08:41:34;;;;;;;30.42;22.48;;;;;;;9.29;84.37;102234.16;7390000;19;20013;-62
2022/03/14 08:44:03;;;;;;;35.80;23.60;;;;;;;9.32;84.03;102241.09;7390739;19;20478;-62
2022/03/14 08:46:32;;;;;;;34.28;23.00;;;;;;;9.22;84.71;102240.38;7389756;19;20017;-62
2022/03/14 08:49:04;;;;;;;33.10;23.75;;;;;;;9.37;84.56;102252.38;7390304;19;20356;-61
2022/03/14 08:51:33;;;;;;;33.17;23.67;;;;;;;9.35;83.03;102248.91;7389991;19;20491;-63
2022/03/14 08:54:02;;;;;;;34.08;24.10;;;;;;;9.40;83.73;102264.50;7390448;19;20023;-64
2022/03/14 08:56:31;;;;;;;34.90;24.95;;;;;;;9.44;83.25;102260.97;7389672;19;20455;-62
2022/03/14 08:58:59;;;;;;;32.42;23.52;;;;;;;9.47;82.77;102269.63;7390381;19;20014;-62
2022/03/14 09:01:28;;;;;;;32.88;24.13;;;;;;;9.48;82.42;102266.09;7389672;19;20015;-63
2022/03/14 09:03:57;;;;;;;35.42;24.17;;;;;;;9.35;82.95;102278.53;7390024;19;20360;-63
2022/03/14 09:06:29;;;;;;;35.92;24.58;;;;;;;9.38;82.90;102285.47;7388807;19;20011;-63
2022/03/14 09:08:58;;;;;;;34.30;22.70;;;;;;;9.42;82.92;102281.91;7390219;19;20466;-62
2022/03/14 09:11:27;;;;;;;35.55;23.67;;;;;;;9.39;82.66;102286.34;7389092;19;20026;-63
2022/03/14 09:13:57;;;;;;;36.33;24.45;;;;;;;9.42;82.71;102291.53;7392476;19;20045;-61
2022/03/14 09:16:29;;;;;;;35.38;24.75;;;;;;;9.48;82.25;102288.81;7388712;19;20021;-62
2022/03/14 09:18:59;;;;;;;34.55;24.70;;;;;;;9.39;82.48;102288.97;7396445;19;20025;-62
2022/03/14 09:21:33;;;;;;;35.50;24.40;;;;;;;9.38;82.60;102295.06;7395887;19;20352;-61
2022/03/14 09:24:03;;;;;;;32.72;23.60;;;;;;;9.40;82.02;102296.78;7396619;19;20014;-62
2022/03/14 09:26:35;;;;;;;34.53;24.75;;;;;;;9.45;81.88;102310.66;7396401;19;20014;-63
2022/03/14 09:29:04;;;;;;;36.20;23.88;;;;;;;9.42;82.29;102305.47;7396087;19;20415;-61
2022/03/14 09:31:33;;;;;;;39.58;26.08;;;;;;;9.56;82.34;102309.63;7395892;19;20006;-62
2022/03/14 09:34:02;;;;;;;39.70;26.65;;;;;;;9.57;81.31;102309.59;7395886;19;20034;-62
2022/03/14 09:36:34;;;;;;;37.60;25.75;;;;;;;9.58;81.51;102315.69;7395412;19;20010;-63
2022/03/14 09:39:03;;;;;;;37.22;25.25;;;;;;;9.55;81.46;102321.84;7395513;19;20022;-61
2022/03/14 09:41:35;;;;;;;35.88;25.52;;;;;;;9.59;81.38;102320.91;7396186;19;20022;-63
2022/03/14 09:44:06;;;;;;;39.40;26.08;;;;;;;9.55;81.13;102326.22;7396328;19;20080;-62
2022/03/14 09:46:39;;;;;;;38.22;26.05;;;;;;;9.59;80.91;102326.13;7396118;19;20462;-63
2022/03/14 09:49:11;;;;;;;43.10;26.95;;;;;;;9.48;81.29;102331.53;7395829;19;20014;-62
2022/03/14 09:51:45;;;;;;;40.70;26.15;;;;;;;9.51;82.06;102341.09;7395475;19;20014;-60
2022/03/14 09:54:14;;;;;;;42.53;27.83;;;;;;;9.53;81.52;102331.47;7398998;19;20026;-63
2022/03/14 09:56:43;;;;;;;45.53;29.02;;;;;;;9.56;80.77;102334.03;7413202;19;20656;-62
2022/03/14 09:59:14;;;;;;;41.28;27.27;;;;;;;9.43;81.53;102342.97;7397445;19;20014;-63
2022/03/14 10:01:44;;;;;;;43.08;28.35;;;;;;;9.35;82.06;102343.06;7395896;19;20471;-62
2022/03/14 10:04:13;;;;;;;41.58;28.00;;;;;;;9.43;81.56;102340.38;7395240;19;20337;-63
2022/03/14 10:06:44;;;;;;;41.88;28.05;;;;;;;9.55;81.55;102349.78;7395158;19;20508;-63
2022/03/14 10:09:13;;;;;;;44.63;27.98;;;;;;;9.61;81.16;102358.38;7394881;19;20022;-63
2022/03/14 10:11:42;;;;;;;40.83;27.40;;;;;;;9.68;80.93;102359.16;7394847;19;20015;-63
2022/03/14 10:14:17;;;;;;;44.53;28.42;;;;;;;9.66;81.53;102367.03;7394443;19;20022;-63
2022/03/14 10:16:45;;;;;;;41.72;28.73;;;;;;;9.66;80.99;102371.41;7393593;19;20309;-64
2022/03/14 10:19:20;;;;;;;41.72;28.13;;;;;;;9.64;80.42;102368.81;7393305;19;20030;-64
2022/03/14 10:21:53;;;;;;;38.78;27.75;;;;;;;9.65;81.03;102370.53;7394475;19;20018;-62
2022/03/14 10:24:25;;;;;;;43.20;28.27;;;;;;;9.73;81.23;102375.66;7393557;19;20015;-63
2022/03/14 10:26:57;;;;;;;41.40;28.55;;;;;;;9.89;80.70;102378.88;7393833;19;20476;-62
2022/03/14 10:29:27;;;;;;;42.80;28.17;;;;;;;9.80;80.07;102384.25;7391415;19;20026;-63
2022/03/14 10:31:57;;;;;;;46.50;28.00;;;;;;;9.76;80.23;102383.47;7393744;19;20021;-63
2022/03/14 10:34:26;;;;;;;38.83;27.33;;;;;;;9.79;80.72;102380.78;7393440;19;20558;-64
2022/03/14 10:37:00;;;;;;;42.75;29.00;;;;;;;9.93;80.41;102383.19;7393710;19;20014;-63
2022/03/14 10:39:31;;;;;;;41.15;28.63;;;;;;;10.26;79.48;102385.25;7393763;19;20056;-63
2022/03/14 10:42:07;;;;;;;41.53;27.52;;;;;;;10.50;79.31;102386.59;7394508;19;20505;-63
2022/03/14 10:44:37;;;;;;;41.08;26.63;;;;;;;10.62;77.55;102389.00;7395115;19;20103;-63
2022/03/14 10:47:09;;;;;;;38.58;27.70;;;;;;;10.59;77.82;102393.41;7393370;19;20050;-63
2022/03/14 10:49:40;;;;;;;40.15;26.15;;;;;;;10.73;77.26;102389.66;7393269;19;20025;-63
2022/03/14 10:52:13;;;;;;;40.45;26.02;;;;;;;10.79;77.42;102387.78;7392555;19;20025;-63
2022/03/14 10:54:43;;;;;;;42.10;26.17;;;;;;;11.06;77.43;102387.25;7393359;19;20092;-63
2022/03/14 10:57:13;;;;;;;38.30;26.02;;;;;;;11.06;76.44;102389.84;7392556;19;20371;-66
2022/03/14 10:59:43;;;;;;;36.63;25.77;;;;;;;10.77;74.79;102394.81;7392680;19;20348;-63
2022/03/14 11:02:14;;;;;;;37.95;25.88;;;;;;;10.51;76.05;102402.28;7394443;19;20479;-63
2022/03/14 11:04:44;;;;;;;34.30;24.40;;;;;;;10.86;75.60;102405.13;7394789;19;20014;-64
2022/03/14 11:07:16;;;;;;;40.67;27.05;;;;;;;11.11;74.89;102408.13;7392126;19;20021;-62
2022/03/14 11:09:48;;;;;;;37.35;25.10;;;;;;;11.17;75.12;102401.88;7395312;19;20010;-64
2022/03/14 11:12:20;;;;;;;32.17;23.25;;;;;;;11.19;73.21;102423.69;7397439;19;20058;-63
2022/03/14 11:14:59;;;;;;;34.72;23.95;;;;;;;10.73;74.83;102412.34;7397157;19;20014;-63
2022/03/14 11:17:29;;;;;;;37.08;25.75;;;;;;;10.83;75.38;102419.19;7391477;19;20107;-63
2022/03/14 11:20:00;;;;;;;39.08;26.92;;;;;;;10.95;75.10;102425.94;7392973;19;20026;-63
2022/03/14 11:22:33;;;;;;;36.30;25.08;;;;;;;10.99;74.88;102431.97;7392729;19;20023;-62
2022/03/14 11:25:03;;;;;;;35.67;23.77;;;;;;;10.69;74.19;102429.06;7393242;19;20014;-63
2022/03/14 11:27:37;;;;;;;35.30;22.85;;;;;;;10.53;74.65;102429.34;7391867;19;20030;-64
2022/03/14 11:30:09;;;;;;;30.13;22.20;;;;;;;10.69;74.19;102434.31;7392735;19;20483;-61
2022/03/14 11:32:41;;;;;;;33.20;21.77;;;;;;;10.60;74.58;102437.94;7392287;19;20018;-62